sensor_id;sensor_type;location;lat;lon;timestamp;P1;durP1;ratioP1;P2;durP2;ratioP2
57389;SDS011;43217;52.694;6.214;2024-02-14T00:01:19;20.65;;;17.23;;
57389;SDS011;43217;52.694;6.214;2024-02-14T00:03:45;19.30;;;17.30;;
57389;SDS011;43217;52.694;6.214;2024-02-14T00:06:10;19.67;;;17.77;;
57389;SDS011;43217;52.694;6.214;2024-02-14T00:08:38;18.83;;;16.80;;
57389;SDS011;43217;52.694;6.214;2024-02-14T00:11:03;21.20;;;18.98;;
57389;SDS011;43217;52.694;6.214;2024-02-14T00:13:29;20.35;;;18.15;;
57389;SDS011;43217;52.694;6.214;2024-02-14T00:15:55;20.65;;;18.50;;
57389;SDS011;43217;52.694;6.214;2024-02-14T00:18:21;21.10;;;18.90;;
57389;SDS011;43217;52.694;6.214;2024-02-14T00:20:48;21.45;;;18.90;;
57389;SDS011;43217;52.694;6.214;2024-02-14T00:23:13;20.60;;;18.60;;
57389;SDS011;43217;52.694;6.214;2024-02-14T00:25:39;19.63;;;17.70;;
57389;SDS011;43217;52.694;6.214;2024-02-14T00:28:05;21.60;;;19.25;;
57389;SDS011;43217;52.694;6.214;2024-02-14T00:30:31;23.13;;;20.55;;
57389;SDS011;43217;52.694;6.214;2024-02-14T00:32:56;22.83;;;20.42;;
57389;SDS011;43217;52.694;6.214;2024-02-14T00:35:22;23.40;;;19.88;;
57389;SDS011;43217;52.694;6.214;2024-02-14T00:37:48;21.92;;;19.60;;
57389;SDS011;43217;52.694;6.214;2024-02-14T00:40:13;22.67;;;20.30;;
57389;SDS011;43217;52.694;6.214;2024-02-14T00:42:39;22.45;;;20.20;;
57389;SDS011;43217;52.694;6.214;2024-02-14T00:45:06;21.00;;;18.70;;
57389;SDS011;43217;52.694;6.214;2024-02-14T00:47:34;24.35;;;20.52;;
57389;SDS011;43217;52.694;6.214;2024-02-14T00:49:59;22.13;;;19.35;;
57389;SDS011;43217;52.694;6.214;2024-02-14T00:52:25;21.98;;;19.63;;
57389;SDS011;43217;52.694;6.214;2024-02-14T00:54:51;20.98;;;18.70;;
57389;SDS011;43217;52.694;6.214;2024-02-14T00:57:17;20.20;;;18.15;;
57389;SDS011;43217;52.694;6.214;2024-02-14T00:59:44;19.23;;;17.30;;
57389;SDS011;43217;52.694;6.214;2024-02-14T01:02:09;19.15;;;17.20;;
57389;SDS011;43217;52.694;6.214;2024-02-14T01:04:35;19.50;;;17.38;;
57389;SDS011;43217;52.694;6.214;2024-02-14T01:07:02;18.92;;;17.08;;
57389;SDS011;43217;52.694;6.214;2024-02-14T01:09:28;19.65;;;17.67;;
57389;SDS011;43217;52.694;6.214;2024-02-14T01:11:54;20.48;;;17.95;;
57389;SDS011;43217;52.694;6.214;2024-02-14T01:14:20;20.40;;;18.23;;
57389;SDS011;43217;52.694;6.214;2024-02-14T01:16:46;19.98;;;17.98;;
57389;SDS011;43217;52.694;6.214;2024-02-14T01:19:12;20.55;;;18.08;;
57389;SDS011;43217;52.694;6.214;2024-02-14T01:21:39;20.15;;;18.05;;
57389;SDS011;43217;52.694;6.214;2024-02-14T01:24:04;18.70;;;16.98;;
57389;SDS011;43217;52.694;6.214;2024-02-14T01:26:30;18.83;;;16.92;;
57389;SDS011;43217;52.694;6.214;2024-02-14T01:28:57;18.73;;;16.73;;
57389;SDS011;43217;52.694;6.214;2024-02-14T01:31:25;19.85;;;16.88;;
57389;SDS011;43217;52.694;6.214;2024-02-14T01:33:50;17.17;;;15.48;;
57389;SDS011;43217;52.694;6.214;2024-02-14T01:36:16;16.58;;;14.82;;
57389;SDS011;43217;52.694;6.214;2024-02-14T01:38:42;15.77;;;14.07;;
57389;SDS011;43217;52.694;6.214;2024-02-14T01:41:08;16.15;;;14.60;;
57389;SDS011;43217;52.694;6.214;2024-02-14T01:43:33;17.25;;;15.45;;
57389;SDS011;43217;52.694;6.214;2024-02-14T01:46:02;14.48;;;13.05;;
57389;SDS011;43217;52.694;6.214;2024-02-14T01:48:30;16.95;;;14.20;;
57389;SDS011;43217;52.694;6.214;2024-02-14T01:50:56;15.23;;;13.45;;
57389;SDS011;43217;52.694;6.214;2024-02-14T01:53:23;14.15;;;12.75;;
57389;SDS011;43217;52.694;6.214;2024-02-14T01:55:50;13.68;;;12.35;;
57389;SDS011;43217;52.694;6.214;2024-02-14T01:58:16;13.73;;;12.40;;
57389;SDS011;43217;52.694;6.214;2024-02-14T02:00:43;12.32;;;11.23;;
57389;SDS011;43217;52.694;6.214;2024-02-14T02:03:09;12.80;;;11.55;;
57389;SDS011;43217;52.694;6.214;2024-02-14T02:05:35;12.82;;;11.50;;
57389;SDS011;43217;52.694;6.214;2024-02-14T02:08:01;12.85;;;11.55;;
57389;SDS011;43217;52.694;6.214;2024-02-14T02:10:27;13.05;;;11.80;;
57389;SDS011;43217;52.694;6.214;2024-02-14T02:13:00;13.73;;;12.43;;
57389;SDS011;43217;52.694;6.214;2024-02-14T02:15:26;12.63;;;11.32;;
57389;SDS011;43217;52.694;6.214;2024-02-14T02:17:53;12.05;;;10.80;;
57389;SDS011;43217;52.694;6.214;2024-02-14T02:20:19;12.90;;;11.60;;
57389;SDS011;43217;52.694;6.214;2024-02-14T02:22:46;11.68;;;10.52;;
57389;SDS011;43217;52.694;6.214;2024-02-14T02:25:13;11.55;;;10.45;;
57389;SDS011;43217;52.694;6.214;2024-02-14T02:27:39;12.30;;;11.00;;
57389;SDS011;43217;52.694;6.214;2024-02-14T02:30:05;12.30;;;11.10;;
57389;SDS011;43217;52.694;6.214;2024-02-14T02:32:31;12.60;;;11.30;;
57389;SDS011;43217;52.694;6.214;2024-02-14T02:34:57;12.70;;;11.40;;
57389;SDS011;43217;52.694;6.214;2024-02-14T02:37:23;13.07;;;11.77;;
57389;SDS011;43217;52.694;6.214;2024-02-14T02:39:50;14.47;;;11.83;;
57389;SDS011;43217;52.694;6.214;2024-02-14T02:42:16;14.30;;;12.82;;
57389;SDS011;43217;52.694;6.214;2024-02-14T02:44:45;15.20;;;12.98;;
57389;SDS011;43217;52.694;6.214;2024-02-14T02:47:12;15.20;;;13.70;;
57389;SDS011;43217;52.694;6.214;2024-02-14T02:49:37;15.52;;;13.68;;
57389;SDS011;43217;52.694;6.214;2024-02-14T02:52:03;16.02;;;14.32;;
57389;SDS011;43217;52.694;6.214;2024-02-14T02:54:29;16.90;;;15.07;;
57389;SDS011;43217;52.694;6.214;2024-02-14T02:56:55;17.60;;;13.95;;
57389;SDS011;43217;52.694;6.214;2024-02-14T02:59:20;17.40;;;14.90;;
57389;SDS011;43217;52.694;6.214;2024-02-14T03:01:47;18.55;;;15.75;;
57389;SDS011;43217;52.694;6.214;2024-02-14T03:04:14;17.05;;;15.30;;
57389;SDS011;43217;52.694;6.214;2024-02-14T03:06:40;19.95;;;15.93;;
57389;SDS011;43217;52.694;6.214;2024-02-14T03:09:08;18.70;;;16.40;;
57389;SDS011;43217;52.694;6.214;2024-02-14T03:11:34;19.40;;;16.90;;
57389;SDS011;43217;52.694;6.214;2024-02-14T03:14:00;18.92;;;16.15;;
57389;SDS011;43217;52.694;6.214;2024-02-14T03:16:26;18.60;;;16.60;;
57389;SDS011;43217;52.694;6.214;2024-02-14T03:18:52;20.38;;;16.33;;
57389;SDS011;43217;52.694;6.214;2024-02-14T03:21:19;19.27;;;16.60;;
57389;SDS011;43217;52.694;6.214;2024-02-14T03:23:45;20.80;;;16.95;;
57389;SDS011;43217;52.694;6.214;2024-02-14T03:26:11;21.83;;;17.27;;
57389;SDS011;43217;52.694;6.214;2024-02-14T03:28:36;23.75;;;18.23;;
57389;SDS011;43217;52.694;6.214;2024-02-14T03:31:02;22.50;;;18.50;;
57389;SDS011;43217;52.694;6.214;2024-02-14T03:33:27;26.75;;;19.08;;
57389;SDS011;43217;52.694;6.214;2024-02-14T03:35:54;23.77;;;19.30;;
57389;SDS011;43217;52.694;6.214;2024-02-14T03:38:26;27.05;;;21.67;;
57389;SDS011;43217;52.694;6.214;2024-02-14T03:40:52;26.63;;;20.63;;
57389;SDS011;43217;52.694;6.214;2024-02-14T03:43:18;28.58;;;21.27;;
57389;SDS011;43217;52.694;6.214;2024-02-14T03:45:45;29.25;;;20.70;;
57389;SDS011;43217;52.694;6.214;2024-02-14T03:48:11;28.92;;;21.02;;
57389;SDS011;43217;52.694;6.214;2024-02-14T03:50:43;26.73;;;21.33;;
57389;SDS011;43217;52.694;6.214;2024-02-14T03:53:08;27.98;;;21.15;;
57389;SDS011;43217;52.694;6.214;2024-02-14T03:55:37;30.05;;;21.10;;
57389;SDS011;43217;52.694;6.214;2024-02-14T03:58:03;30.80;;;21.50;;
57389;SDS011;43217;52.694;6.214;2024-02-14T04:00:30;27.17;;;21.13;;
57389;SDS011;43217;52.694;6.214;2024-02-14T04:02:56;30.45;;;22.70;;
57389;SDS011;43217;52.694;6.214;2024-02-14T04:05:25;28.27;;;21.23;;
57389;SDS011;43217;52.694;6.214;2024-02-14T04:07:52;31.50;;;21.65;;
57389;SDS011;43217;52.694;6.214;2024-02-14T04:10:19;27.13;;;21.13;;
57389;SDS011;43217;52.694;6.214;2024-02-14T04:12:45;32.45;;;21.98;;
57389;SDS011;43217;52.694;6.214;2024-02-14T04:15:11;29.63;;;21.02;;
57389;SDS011;43217;52.694;6.214;2024-02-14T04:17:37;29.77;;;21.02;;
57389;SDS011;43217;52.694;6.214;2024-02-14T04:20:04;27.08;;;19.98;;
57389;SDS011;43217;52.694;6.214;2024-02-14T04:22:30;24.67;;;19.95;;
57389;SDS011;43217;52.694;6.214;2024-02-14T04:24:56;24.63;;;19.95;;
57389;SDS011;43217;52.694;6.214;2024-02-14T04:27:21;26.00;;;19.42;;
57389;SDS011;43217;52.694;6.214;2024-02-14T04:29:47;25.73;;;19.48;;
57389;SDS011;43217;52.694;6.214;2024-02-14T04:32:13;27.27;;;20.05;;
57389;SDS011;43217;52.694;6.214;2024-02-14T04:34:39;24.65;;;19.17;;
57389;SDS011;43217;52.694;6.214;2024-02-14T04:37:06;26.95;;;19.20;;
57389;SDS011;43217;52.694;6.214;2024-02-14T04:39:39;24.25;;;17.63;;
57389;SDS011;43217;52.694;6.214;2024-02-14T04:42:04;29.77;;;19.05;;
57389;SDS011;43217;52.694;6.214;2024-02-14T04:44:31;25.83;;;18.38;;
57389;SDS011;43217;52.694;6.214;2024-02-14T04:46:57;24.20;;;18.20;;
57389;SDS011;43217;52.694;6.214;2024-02-14T04:49:26;28.70;;;19.13;;
57389;SDS011;43217;52.694;6.214;2024-02-14T04:51:54;25.88;;;18.30;;
57389;SDS011;43217;52.694;6.214;2024-02-14T04:54:20;29.55;;;19.30;;
57389;SDS011;43217;52.694;6.214;2024-02-14T04:56:46;26.67;;;17.63;;
57389;SDS011;43217;52.694;6.214;2024-02-14T04:59:11;29.98;;;18.42;;
57389;SDS011;43217;52.694;6.214;2024-02-14T05:01:37;25.52;;;17.38;;
57389;SDS011;43217;52.694;6.214;2024-02-14T05:04:05;29.17;;;18.40;;
57389;SDS011;43217;52.694;6.214;2024-02-14T05:06:31;24.90;;;17.30;;
57389;SDS011;43217;52.694;6.214;2024-02-14T05:08:57;26.65;;;17.50;;
57389;SDS011;43217;52.694;6.214;2024-02-14T05:11:23;33.00;;;18.85;;
57389;SDS011;43217;52.694;6.214;2024-02-14T05:13:48;32.92;;;19.27;;
57389;SDS011;43217;52.694;6.214;2024-02-14T05:16:21;35.55;;;20.23;;
57389;SDS011;43217;52.694;6.214;2024-02-14T05:18:46;29.77;;;18.98;;
57389;SDS011;43217;52.694;6.214;2024-02-14T05:21:13;28.58;;;18.85;;
57389;SDS011;43217;52.694;6.214;2024-02-14T05:23:39;24.92;;;17.63;;
57389;SDS011;43217;52.694;6.214;2024-02-14T05:26:05;26.45;;;17.80;;
57389;SDS011;43217;52.694;6.214;2024-02-14T05:28:31;27.55;;;18.95;;
57389;SDS011;43217;52.694;6.214;2024-02-14T05:30:57;28.98;;;20.15;;
57389;SDS011;43217;52.694;6.214;2024-02-14T05:33:24;31.35;;;19.50;;
57389;SDS011;43217;52.694;6.214;2024-02-14T05:35:49;27.02;;;18.80;;
57389;SDS011;43217;52.694;6.214;2024-02-14T05:38:15;31.00;;;20.23;;
57389;SDS011;43217;52.694;6.214;2024-02-14T05:40:41;28.52;;;19.15;;
57389;SDS011;43217;52.694;6.214;2024-02-14T05:43:09;34.15;;;20.27;;
57389;SDS011;43217;52.694;6.214;2024-02-14T05:45:35;31.20;;;19.95;;
57389;SDS011;43217;52.694;6.214;2024-02-14T05:48:01;31.27;;;19.60;;
57389;SDS011;43217;52.694;6.214;2024-02-14T05:50:27;30.00;;;19.67;;
57389;SDS011;43217;52.694;6.214;2024-02-14T05:52:53;29.90;;;20.70;;
57389;SDS011;43217;52.694;6.214;2024-02-14T05:55:18;33.90;;;21.30;;
57389;SDS011;43217;52.694;6.214;2024-02-14T05:57:44;42.13;;;23.88;;
57389;SDS011;43217;52.694;6.214;2024-02-14T06:00:10;50.70;;;24.63;;
57389;SDS011;43217;52.694;6.214;2024-02-14T06:02:37;38.78;;;24.95;;
57389;SDS011;43217;52.694;6.214;2024-02-14T06:05:05;39.15;;;24.08;;
57389;SDS011;43217;52.694;6.214;2024-02-14T06:07:35;50.75;;;26.73;;
57389;SDS011;43217;52.694;6.214;2024-02-14T06:10:01;38.00;;;25.17;;
57389;SDS011;43217;52.694;6.214;2024-02-14T06:12:27;47.90;;;26.40;;
57389;SDS011;43217;52.694;6.214;2024-02-14T06:14:54;42.58;;;26.77;;
57389;SDS011;43217;52.694;6.214;2024-02-14T06:17:20;44.08;;;27.38;;
57389;SDS011;43217;52.694;6.214;2024-02-14T06:19:46;45.00;;;27.95;;
57389;SDS011;43217;52.694;6.214;2024-02-14T06:22:11;46.08;;;27.73;;
57389;SDS011;43217;52.694;6.214;2024-02-14T06:24:37;48.40;;;28.15;;
57389;SDS011;43217;52.694;6.214;2024-02-14T06:27:03;47.10;;;27.73;;
57389;SDS011;43217;52.694;6.214;2024-02-14T06:29:28;41.85;;;27.63;;
57389;SDS011;43217;52.694;6.214;2024-02-14T06:31:54;48.17;;;28.05;;
57389;SDS011;43217;52.694;6.214;2024-02-14T06:34:20;43.97;;;27.27;;
57389;SDS011;43217;52.694;6.214;2024-02-14T06:36:48;47.85;;;28.00;;
57389;SDS011;43217;52.694;6.214;2024-02-14T06:39:14;48.60;;;27.52;;
57389;SDS011;43217;52.694;6.214;2024-02-14T06:41:40;57.03;;;29.52;;
57389;SDS011;43217;52.694;6.214;2024-02-14T06:44:05;49.58;;;28.40;;
57389;SDS011;43217;52.694;6.214;2024-02-14T06:46:31;49.72;;;28.08;;
57389;SDS011;43217;52.694;6.214;2024-02-14T06:48:56;53.92;;;27.30;;
57389;SDS011;43217;52.694;6.214;2024-02-14T06:51:22;61.33;;;29.92;;
57389;SDS011;43217;52.694;6.214;2024-02-14T06:53:49;63.05;;;30.42;;
57389;SDS011;43217;52.694;6.214;2024-02-14T06:56:15;63.15;;;32.80;;
57389;SDS011;43217;52.694;6.214;2024-02-14T06:58:41;70.47;;;33.28;;
57389;SDS011;43217;52.694;6.214;2024-02-14T07:01:07;72.07;;;34.13;;
57389;SDS011;43217;52.694;6.214;2024-02-14T07:03:33;67.30;;;33.78;;
57389;SDS011;43217;52.694;6.214;2024-02-14T07:05:58;68.35;;;32.88;;
57389;SDS011;43217;52.694;6.214;2024-02-14T07:08:24;75.10;;;34.78;;
57389;SDS011;43217;52.694;6.214;2024-02-14T07:10:54;71.32;;;34.75;;
57389;SDS011;43217;52.694;6.214;2024-02-14T07:13:20;63.28;;;31.42;;
57389;SDS011;43217;52.694;6.214;2024-02-14T07:15:45;70.13;;;33.67;;
57389;SDS011;43217;52.694;6.214;2024-02-14T07:18:11;65.03;;;33.05;;
57389;SDS011;43217;52.694;6.214;2024-02-14T07:20:37;61.75;;;34.35;;
57389;SDS011;43217;52.694;6.214;2024-02-14T07:23:02;70.35;;;34.60;;
57389;SDS011;43217;52.694;6.214;2024-02-14T07:25:29;69.78;;;35.67;;
57389;SDS011;43217;52.694;6.214;2024-02-14T07:27:54;76.40;;;36.28;;
57389;SDS011;43217;52.694;6.214;2024-02-14T07:30:20;65.65;;;36.10;;
57389;SDS011;43217;52.694;6.214;2024-02-14T07:32:46;71.53;;;36.17;;
57389;SDS011;43217;52.694;6.214;2024-02-14T07:35:11;67.78;;;36.17;;
57389;SDS011;43217;52.694;6.214;2024-02-14T07:37:38;65.70;;;35.22;;
57389;SDS011;43217;52.694;6.214;2024-02-14T07:40:04;69.40;;;36.22;;
57389;SDS011;43217;52.694;6.214;2024-02-14T07:42:31;70.32;;;38.05;;
57389;SDS011;43217;52.694;6.214;2024-02-14T07:44:56;71.80;;;36.50;;
57389;SDS011;43217;52.694;6.214;2024-02-14T07:47:22;75.78;;;35.88;;
57389;SDS011;43217;52.694;6.214;2024-02-14T07:49:48;78.22;;;39.83;;
57389;SDS011;43217;52.694;6.214;2024-02-14T07:52:13;91.07;;;38.90;;
57389;SDS011;43217;52.694;6.214;2024-02-14T07:54:39;78.32;;;36.67;;
57389;SDS011;43217;52.694;6.214;2024-02-14T07:57:05;75.18;;;36.83;;
57389;SDS011;43217;52.694;6.214;2024-02-14T07:59:31;90.40;;;38.78;;
57389;SDS011;43217;52.694;6.214;2024-02-14T08:01:56;101.50;;;40.22;;
57389;SDS011;43217;52.694;6.214;2024-02-14T08:04:22;94.72;;;38.65;;
57389;SDS011;43217;52.694;6.214;2024-02-14T08:06:48;93.38;;;39.88;;
57389;SDS011;43217;52.694;6.214;2024-02-14T08:09:16;82.05;;;39.28;;
57389;SDS011;43217;52.694;6.214;2024-02-14T08:11:42;93.68;;;42.33;;
57389;SDS011;43217;52.694;6.214;2024-02-14T08:14:08;82.43;;;38.33;;
57389;SDS011;43217;52.694;6.214;2024-02-14T08:16:33;86.45;;;39.15;;
57389;SDS011;43217;52.694;6.214;2024-02-14T08:19:00;83.82;;;38.40;;
57389;SDS011;43217;52.694;6.214;2024-02-14T08:21:27;84.47;;;38.85;;
57389;SDS011;43217;52.694;6.214;2024-02-14T08:23:53;75.85;;;35.95;;
57389;SDS011;43217;52.694;6.214;2024-02-14T08:26:23;86.00;;;37.97;;
57389;SDS011;43217;52.694;6.214;2024-02-14T08:28:49;83.68;;;35.78;;
57389;SDS011;43217;52.694;6.214;2024-02-14T08:31:15;79.55;;;34.40;;
57389;SDS011;43217;52.694;6.214;2024-02-14T08:33:40;70.97;;;33.25;;
57389;SDS011;43217;52.694;6.214;2024-02-14T08:36:06;66.43;;;30.38;;
57389;SDS011;43217;52.694;6.214;2024-02-14T08:38:32;65.45;;;30.90;;
57389;SDS011;43217;52.694;6.214;2024-02-14T08:40:59;58.35;;;27.90;;
57389;SDS011;43217;52.694;6.214;2024-02-14T08:43:26;59.47;;;28.40;;
57389;SDS011;43217;52.694;6.214;2024-02-14T08:45:53;59.65;;;29.13;;
57389;SDS011;43217;52.694;6.214;2024-02-14T08:48:19;65.25;;;29.00;;
57389;SDS011;43217;52.694;6.214;2024-02-14T08:50:45;56.03;;;27.08;;
57389;SDS011;43217;52.694;6.214;2024-02-14T08:53:11;54.08;;;28.50;;
57389;SDS011;43217;52.694;6.214;2024-02-14T08:55:38;55.97;;;27.77;;
57389;SDS011;43217;52.694;6.214;2024-02-14T08:58:07;53.08;;;27.25;;
57389;SDS011;43217;52.694;6.214;2024-02-14T09:00:34;66.07;;;30.67;;
57389;SDS011;43217;52.694;6.214;2024-02-14T09:03:01;71.13;;;35.55;;
57389;SDS011;43217;52.694;6.214;2024-02-14T09:05:28;78.53;;;38.65;;
57389;SDS011;43217;52.694;6.214;2024-02-14T09:07:54;109.65;;;51.28;;
57389;SDS011;43217;52.694;6.214;2024-02-14T09:10:20;76.80;;;34.78;;
57389;SDS011;43217;52.694;6.214;2024-02-14T09:12:46;90.82;;;38.97;;
57389;SDS011;43217;52.694;6.214;2024-02-14T09:15:12;90.30;;;35.95;;
57389;SDS011;43217;52.694;6.214;2024-02-14T09:17:38;91.45;;;42.45;;
57389;SDS011;43217;52.694;6.214;2024-02-14T09:20:05;87.35;;;36.03;;
57389;SDS011;43217;52.694;6.214;2024-02-14T09:22:37;82.75;;;36.95;;
57389;SDS011;43217;52.694;6.214;2024-02-14T09:25:03;85.53;;;37.42;;
57389;SDS011;43217;52.694;6.214;2024-02-14T09:27:29;93.03;;;39.40;;
57389;SDS011;43217;52.694;6.214;2024-02-14T09:29:55;87.90;;;39.38;;
57389;SDS011;43217;52.694;6.214;2024-02-14T09:32:21;93.68;;;38.70;;
57389;SDS011;43217;52.694;6.214;2024-02-14T09:34:46;100.85;;;48.35;;
57389;SDS011;43217;52.694;6.214;2024-02-14T09:37:12;85.80;;;37.17;;
57389;SDS011;43217;52.694;6.214;2024-02-14T09:39:38;77.10;;;37.40;;
57389;SDS011;43217;52.694;6.214;2024-02-14T09:42:07;80.18;;;37.35;;
57389;SDS011;43217;52.694;6.214;2024-02-14T09:44:35;90.82;;;37.35;;
57389;SDS011;43217;52.694;6.214;2024-02-14T09:47:01;67.85;;;33.97;;
57389;SDS011;43217;52.694;6.214;2024-02-14T09:49:30;75.72;;;35.65;;
57389;SDS011;43217;52.694;6.214;2024-02-14T09:51:57;77.97;;;35.25;;
57389;SDS011;43217;52.694;6.214;2024-02-14T09:54:24;70.50;;;31.70;;
57389;SDS011;43217;52.694;6.214;2024-02-14T09:56:50;74.13;;;35.07;;
57389;SDS011;43217;52.694;6.214;2024-02-14T09:59:19;66.90;;;31.30;;
57389;SDS011;43217;52.694;6.214;2024-02-14T10:01:46;69.85;;;33.70;;
57389;SDS011;43217;52.694;6.214;2024-02-14T10:04:15;76.50;;;34.88;;
57389;SDS011;43217;52.694;6.214;2024-02-14T10:09:08;69.18;;;37.75;;
57389;SDS011;43217;52.694;6.214;2024-02-14T10:11:35;65.95;;;34.47;;
57389;SDS011;43217;52.694;6.214;2024-02-14T10:14:02;63.80;;;34.08;;
57389;SDS011;43217;52.694;6.214;2024-02-14T10:16:29;64.75;;;33.33;;
57389;SDS011;43217;52.694;6.214;2024-02-14T10:18:55;61.00;;;32.90;;
57389;SDS011;43217;52.694;6.214;2024-02-14T10:21:23;68.00;;;35.42;;
57389;SDS011;43217;52.694;6.214;2024-02-14T10:23:50;64.18;;;34.20;;
57389;SDS011;43217;52.694;6.214;2024-02-14T10:26:18;65.60;;;35.50;;
57389;SDS011;43217;52.694;6.214;2024-02-14T10:28:44;70.32;;;36.47;;
57389;SDS011;43217;52.694;6.214;2024-02-14T10:31:26;61.53;;;33.97;;
57389;SDS011;43217;52.694;6.214;2024-02-14T10:33:53;64.38;;;34.15;;
57389;SDS011;43217;52.694;6.214;2024-02-14T10:36:21;59.53;;;32.45;;
57389;SDS011;43217;52.694;6.214;2024-02-14T10:38:47;60.25;;;32.20;;
57389;SDS011;43217;52.694;6.214;2024-02-14T10:41:15;47.70;;;30.17;;
57389;SDS011;43217;52.694;6.214;2024-02-14T10:43:42;50.28;;;31.15;;
57389;SDS011;43217;52.694;6.214;2024-02-14T10:46:12;49.90;;;30.85;;
57389;SDS011;43217;52.694;6.214;2024-02-14T10:48:45;50.22;;;28.25;;
57389;SDS011;43217;52.694;6.214;2024-02-14T10:51:11;36.92;;;26.02;;
57389;SDS011;43217;52.694;6.214;2024-02-14T10:53:40;36.05;;;24.52;;
57389;SDS011;43217;52.694;6.214;2024-02-14T10:56:10;32.58;;;23.77;;
57389;SDS011;43217;52.694;6.214;2024-02-14T10:58:40;30.63;;;21.73;;
57389;SDS011;43217;52.694;6.214;2024-02-14T11:01:07;29.13;;;21.73;;
57389;SDS011;43217;52.694;6.214;2024-02-14T11:03:34;27.13;;;20.83;;
57389;SDS011;43217;52.694;6.214;2024-02-14T11:06:01;25.30;;;20.58;;
57389;SDS011;43217;52.694;6.214;2024-02-14T11:08:29;26.27;;;21.30;;
57389;SDS011;43217;52.694;6.214;2024-02-14T11:10:58;25.90;;;20.45;;
57389;SDS011;43217;52.694;6.214;2024-02-14T11:13:25;26.20;;;20.30;;
57389;SDS011;43217;52.694;6.214;2024-02-14T11:15:56;23.75;;;19.55;;
57389;SDS011;43217;52.694;6.214;2024-02-14T11:18:25;24.35;;;21.00;;
57389;SDS011;43217;52.694;6.214;2024-02-14T11:20:58;22.02;;;19.45;;
57389;SDS011;43217;52.694;6.214;2024-02-14T11:23:24;23.85;;;19.58;;
57389;SDS011;43217;52.694;6.214;2024-02-14T11:28:24;21.45;;;18.80;;
57389;SDS011;43217;52.694;6.214;2024-02-14T11:30:54;21.02;;;18.88;;
57389;SDS011;43217;52.694;6.214;2024-02-14T11:33:26;20.33;;;18.17;;
57389;SDS011;43217;52.694;6.214;2024-02-14T11:35:52;20.88;;;18.02;;
57389;SDS011;43217;52.694;6.214;2024-02-14T11:38:20;19.23;;;17.23;;
57389;SDS011;43217;52.694;6.214;2024-02-14T11:40:47;18.42;;;16.55;;
57389;SDS011;43217;52.694;6.214;2024-02-14T11:43:14;19.15;;;16.40;;
57389;SDS011;43217;52.694;6.214;2024-02-14T11:45:42;19.20;;;17.20;;
57389;SDS011;43217;52.694;6.214;2024-02-14T11:48:11;19.17;;;17.17;;
57389;SDS011;43217;52.694;6.214;2024-02-14T11:50:42;20.60;;;17.65;;
57389;SDS011;43217;52.694;6.214;2024-02-14T11:53:10;23.92;;;18.65;;
57389;SDS011;43217;52.694;6.214;2024-02-14T11:55:36;23.10;;;18.63;;
57389;SDS011;43217;52.694;6.214;2024-02-14T11:58:06;25.95;;;19.63;;
57389;SDS011;43217;52.694;6.214;2024-02-14T12:00:33;27.90;;;21.10;;
57389;SDS011;43217;52.694;6.214;2024-02-14T12:05:26;28.55;;;21.02;;
57389;SDS011;43217;52.694;6.214;2024-02-14T12:07:52;28.48;;;21.30;;
57389;SDS011;43217;52.694;6.214;2024-02-14T12:10:18;26.02;;;21.05;;
57389;SDS011;43217;52.694;6.214;2024-02-14T12:12:47;29.77;;;21.27;;
57389;SDS011;43217;52.694;6.214;2024-02-14T12:15:13;25.00;;;21.15;;
57389;SDS011;43217;52.694;6.214;2024-02-14T12:20:10;26.77;;;21.92;;
57389;SDS011;43217;52.694;6.214;2024-02-14T12:22:39;24.90;;;22.20;;
57389;SDS011;43217;52.694;6.214;2024-02-14T12:25:05;25.10;;;22.40;;
57389;SDS011;43217;52.694;6.214;2024-02-14T12:27:36;28.67;;;21.52;;
57389;SDS011;43217;52.694;6.214;2024-02-14T12:30:04;25.05;;;22.33;;
57389;SDS011;43217;52.694;6.214;2024-02-14T12:32:33;25.08;;;20.90;;
57389;SDS011;43217;52.694;6.214;2024-02-14T12:34:59;26.70;;;21.58;;
57389;SDS011;43217;52.694;6.214;2024-02-14T12:37:25;24.45;;;20.63;;
57389;SDS011;43217;52.694;6.214;2024-02-14T12:39:51;24.58;;;21.42;;
57389;SDS011;43217;52.694;6.214;2024-02-14T12:42:17;26.95;;;21.40;;
57389;SDS011;43217;52.694;6.214;2024-02-14T12:44:50;25.02;;;20.50;;
57389;SDS011;43217;52.694;6.214;2024-02-14T12:47:16;27.83;;;21.07;;
57389;SDS011;43217;52.694;6.214;2024-02-14T12:49:43;26.10;;;20.50;;
57389;SDS011;43217;52.694;6.214;2024-02-14T12:52:08;30.48;;;20.98;;
57389;SDS011;43217;52.694;6.214;2024-02-14T12:54:34;25.27;;;19.60;;
57389;SDS011;43217;52.694;6.214;2024-02-14T12:57:00;28.15;;;19.55;;
57389;SDS011;43217;52.694;6.214;2024-02-14T12:59:26;25.45;;;19.38;;
57389;SDS011;43217;52.694;6.214;2024-02-14T13:01:51;31.42;;;20.75;;
57389;SDS011;43217;52.694;6.214;2024-02-14T13:04:17;27.23;;;19.73;;
57389;SDS011;43217;52.694;6.214;2024-02-14T13:06:43;26.85;;;19.65;;
57389;SDS011;43217;52.694;6.214;2024-02-14T13:09:08;24.73;;;18.05;;
57389;SDS011;43217;52.694;6.214;2024-02-14T13:11:35;36.57;;;20.97;;
57389;SDS011;43217;52.694;6.214;2024-02-14T13:14:00;29.50;;;19.92;;
57389;SDS011;43217;52.694;6.214;2024-02-14T13:16:26;29.02;;;18.45;;
57389;SDS011;43217;52.694;6.214;2024-02-14T13:18:52;34.42;;;19.50;;
57389;SDS011;43217;52.694;6.214;2024-02-14T13:21:18;24.08;;;17.50;;
57389;SDS011;43217;52.694;6.214;2024-02-14T13:23:43;23.58;;;16.50;;
57389;SDS011;43217;52.694;6.214;2024-02-14T13:26:09;23.38;;;16.75;;
57389;SDS011;43217;52.694;6.214;2024-02-14T13:28:35;23.05;;;15.65;;
57389;SDS011;43217;52.694;6.214;2024-02-14T13:31:01;21.75;;;15.70;;
57389;SDS011;43217;52.694;6.214;2024-02-14T13:33:27;27.63;;;17.45;;
57389;SDS011;43217;52.694;6.214;2024-02-14T13:35:53;21.77;;;15.65;;
57389;SDS011;43217;52.694;6.214;2024-02-14T13:38:19;19.80;;;14.65;;
57389;SDS011;43217;52.694;6.214;2024-02-14T13:40:44;22.40;;;15.27;;
57389;SDS011;43217;52.694;6.214;2024-02-14T13:43:10;22.73;;;15.32;;
57389;SDS011;43217;52.694;6.214;2024-02-14T13:45:40;26.92;;;16.42;;
57389;SDS011;43217;52.694;6.214;2024-02-14T13:48:10;25.98;;;15.80;;
57389;SDS011;43217;52.694;6.214;2024-02-14T13:50:36;22.65;;;15.73;;
57389;SDS011;43217;52.694;6.214;2024-02-14T13:53:03;21.60;;;14.60;;
57389;SDS011;43217;52.694;6.214;2024-02-14T13:55:32;27.15;;;16.20;;
57389;SDS011;43217;52.694;6.214;2024-02-14T13:57:57;26.13;;;15.27;;
57389;SDS011;43217;52.694;6.214;2024-02-14T14:00:23;19.80;;;14.80;;
57389;SDS011;43217;52.694;6.214;2024-02-14T14:02:49;24.42;;;14.85;;
57389;SDS011;43217;52.694;6.214;2024-02-14T14:05:14;19.92;;;14.27;;
57389;SDS011;43217;52.694;6.214;2024-02-14T14:07:40;22.80;;;14.98;;
57389;SDS011;43217;52.694;6.214;2024-02-14T14:10:08;25.60;;;15.18;;
57389;SDS011;43217;52.694;6.214;2024-02-14T14:15:00;29.35;;;18.60;;
57389;SDS011;43217;52.694;6.214;2024-02-14T14:17:26;21.45;;;15.65;;
57389;SDS011;43217;52.694;6.214;2024-02-14T14:19:53;24.85;;;13.95;;
57389;SDS011;43217;52.694;6.214;2024-02-14T14:22:19;17.92;;;12.70;;
57389;SDS011;43217;52.694;6.214;2024-02-14T14:24:44;17.60;;;12.02;;
57389;SDS011;43217;52.694;6.214;2024-02-14T14:27:10;20.25;;;12.73;;
57389;SDS011;43217;52.694;6.214;2024-02-14T14:29:42;20.15;;;13.23;;